createdAt,value
2018-10-12T00:04:36.110Z,45.7
2018-10-12T00:15:21.689Z,46.6
2018-10-12T00:26:07.234Z,45.6
2018-10-12T00:36:20.724Z,45.9
2018-10-12T00:46:35.164Z,45.9
2018-10-12T00:56:48.407Z,46.8
2018-10-12T01:07:02.603Z,48.1
2018-10-12T01:17:16.632Z,48.6
2018-10-12T01:27:31.909Z,48.7
2018-10-12T01:37:46.128Z,49.8
2018-10-12T01:48:00.540Z,50.0
2018-10-12T01:58:45.772Z,50.3
2018-10-12T02:08:59.402Z,50.1
2018-10-12T02:19:11.489Z,49.7
2018-10-12T02:29:25.762Z,50.8
2018-10-12T02:39:40.026Z,49.6
2018-10-12T02:49:52.511Z,49.8
2018-10-12T03:00:06.677Z,49.6
2018-10-12T03:10:51.656Z,49.4
2018-10-12T03:21:06.906Z,50.7
2018-10-12T03:31:20.922Z,51.1
2018-10-12T03:41:34.882Z,51.3
2018-10-12T03:52:20.178Z,52.5
2018-10-12T04:13:41.047Z,52.4
2018-10-12T04:23:57.439Z,52.4
2018-10-12T04:34:19.955Z,53.2
2018-10-12T04:44:34.111Z,52.7
2018-10-12T04:54:48.463Z,52.1
2018-10-12T05:05:02.276Z,51.6
2018-10-12T05:15:47.456Z,51.4
2018-10-12T05:26:32.244Z,51.5
2018-10-12T05:37:20.111Z,52.9
2018-10-12T05:47:33.675Z,54.4
2018-10-12T05:57:47.810Z,56.8
2018-10-12T06:08:02.180Z,55.8
2018-10-12T06:18:16.517Z,57.0
2018-10-12T06:28:31.304Z,55.9
2018-10-12T06:39:44.084Z,55.8
2018-10-12T06:52:09.092Z,56.9
2018-10-12T07:04:02.497Z,56.8
2018-10-12T07:25:55.659Z,58.5
2018-10-12T07:49:13.881Z,59.7
2018-10-12T08:07:14.037Z,52.9
2018-10-12T08:17:30.091Z,47.8
2018-10-12T08:29:36.773Z,44.6
2018-10-12T08:41:40.571Z,41.9
2018-10-12T08:53:32.856Z,39.2
2018-10-12T09:06:54.881Z,37.0
2018-10-12T09:17:28.077Z,37.2
2018-10-12T09:42:02.098Z,38.2
2018-10-12T09:53:34.694Z,36.1
2018-10-12T10:18:40.446Z,34.5
2018-10-12T10:32:07.636Z,33.7
2018-10-12T10:46:42.538Z,32.5
2018-10-12T10:58:33.256Z,31.7
2018-10-12T11:10:39.340Z,31.2
2018-10-12T11:22:38.545Z,30.8
2018-10-12T11:35:44.120Z,30.0
2018-10-12T11:57:29.499Z,29.9
2018-10-12T12:09:19.322Z,30.4
2018-10-12T12:24:41.988Z,30.5
2018-10-12T13:32:17.615Z,35.2
2018-10-12T13:42:33.916Z,34.5
2018-10-12T13:53:38.304Z,35.3
2018-10-12T14:04:55.264Z,35.7
2018-10-12T15:06:04.019Z,36.5
2018-10-12T15:35:16.518Z,37.9
2018-10-12T16:09:36.501Z,39.6
2018-10-12T16:19:52.311Z,40.2
2018-10-12T21:00:17.875Z,51.1
2018-10-12T21:11:36.881Z,52.1
2018-10-12T21:24:59.998Z,53.0
2018-10-12T21:37:10.261Z,53.1
2018-10-12T21:47:24.137Z,53.6
2018-10-12T22:11:16.017Z,53.1
2018-10-12T22:23:47.915Z,53.2
2018-10-12T22:36:06.959Z,52.7
2018-10-12T22:47:53.364Z,52.6
2018-10-12T22:58:05.194Z,52.3
2018-10-12T23:10:54.922Z,52.2
2018-10-12T23:21:06.678Z,52.0
2018-10-12T23:42:32.151Z,53.6
2018-10-12T23:52:44.349Z,52.8
